Time;durP1;ratioP1;P1;durP2;ratioP2;P2;SDS_P1;SDS_P2;PMS_P1;PMS_P2;Temp;Humidity;BMP_temperature;BMP_pressure;BME280_temperature;BME280_humidity;BME280_pressure;Samples;Min_cycle;Max_cycle;Signal;HPM_P1;HPM_P2
2021/05/30 00:01:50;0.00;0.00;0.62;0.00;0.00;0.62;;;;;16.60;1.00;;;;;;2268233;61;2036;-82
2021/05/30 00:04:17;53492.00;0.18;93.22;0.00;0.00;0.62;;;;;16.30;1.00;;;;;;2268936;61;1707;-82
2021/05/30 00:06:44;39812.00;0.13;69.56;0.00;0.00;0.62;;;;;15.60;1.00;;;;;;2270591;61;1057;-82
2021/05/30 00:09:11;0.00;0.00;0.62;0.00;0.00;0.62;;;;;15.10;1.00;;;;;;2271039;61;1141;-82
2021/05/30 00:11:37;0.00;0.00;0.62;0.00;0.00;0.62;;;;;14.90;1.00;;;;;;2272113;61;1204;-81
2021/05/30 00:14:05;65618.00;0.22;114.19;0.00;0.00;0.62;;;;;15.10;1.00;;;;;;2274154;61;1257;-82
2021/05/30 00:16:32;16097.00;0.05;28.51;0.00;0.00;0.62;;;;;15.40;1.00;;;;;;2273268;61;1348;-82
2021/05/30 00:18:59;53483.00;0.18;93.21;0.00;0.00;0.62;;;;;15.40;1.00;;;;;;2275781;61;1226;-82
2021/05/30 00:21:26;60855.00;0.20;105.95;0.00;0.00;0.62;;;;;15.80;1.00;;;;;;2275746;61;2012;-82
2021/05/30 00:23:53;35606.00;0.12;62.29;0.00;0.00;0.62;;;;;15.80;1.00;;;;;;2271914;61;1234;-82
2021/05/30 00:26:19;0.00;0.00;0.62;0.00;0.00;0.62;;;;;15.90;1.00;;;;;;2268846;61;1144;-81
2021/05/30 00:28:46;0.00;0.00;0.62;0.00;0.00;0.62;;;;;16.20;1.00;;;;;;2276445;61;1164;-83
2021/05/30 00:31:12;103002.00;0.34;178.75;7480.00;0.02;13.58;;;;;16.50;1.00;;;;;;2276216;61;1120;-82
2021/05/30 00:33:40;69516.00;0.23;120.92;0.00;0.00;0.62;;;;;16.70;1.00;;;;;;2276323;61;1437;-83
2021/05/30 00:36:07;30263.00;0.10;53.04;0.00;0.00;0.62;;;;;16.80;1.00;;;;;;2273806;61;1116;-82
2021/05/30 00:38:35;20670.00;0.07;36.43;0.00;0.00;0.62;;;;;16.40;1.00;;;;;;2267043;61;1131;-82
2021/05/30 00:41:01;0.00;0.00;0.62;0.00;0.00;0.62;;;;;16.50;1.00;;;;;;2267177;61;1923;-82
2021/05/30 00:43:27;193647.00;0.65;334.99;73272.00;0.24;127.41;;;;;16.50;1.00;;;;;;2267055;61;1258;-82
2021/05/30 00:45:54;12544.00;0.04;22.36;0.00;0.00;0.62;;;;;16.30;1.00;;;;;;2267321;61;1735;-82
2021/05/30 00:48:20;0.00;0.00;0.62;0.00;0.00;0.62;;;;;16.30;1.00;;;;;;2267100;61;1179;-82
2021/05/30 00:50:47;0.00;0.00;0.62;0.00;0.00;0.62;;;;;15.80;1.00;;;;;;2267261;61;1188;-82
2021/05/30 00:53:18;184279.00;0.61;318.86;48929.00;0.16;85.33;;;;;15.90;1.00;;;;;;2267005;61;1385;-82
2021/05/30 00:55:45;67131.00;0.22;116.80;0.00;0.00;0.62;;;;;16.20;1.00;;;;;;2267074;61;1147;-82
2021/05/30 00:58:12;0.00;0.00;0.62;0.00;0.00;0.62;;;;;16.20;1.00;;;;;;2266474;61;1751;-82
2021/05/30 01:00:38;0.00;0.00;0.62;0.00;0.00;0.62;;;;;15.90;1.00;;;;;;2267121;61;2022;-82
2021/05/30 01:03:05;103189.00;0.34;179.08;0.00;0.00;0.62;;;;;16.10;1.00;;;;;;2266757;61;1370;-82
2021/05/30 01:05:31;0.00;0.00;0.62;0.00;0.00;0.62;;;;;16.40;1.00;;;;;;2266928;61;1213;-81
2021/05/30 01:07:58;0.00;0.00;0.62;0.00;0.00;0.62;;;;;15.80;1.00;;;;;;2266398;61;1135;-82
2021/05/30 01:10:28;0.00;0.00;0.62;0.00;0.00;0.62;;;;;15.60;1.00;;;;;;2266670;61;1141;-82
2021/05/30 01:12:57;219995.00;0.73;380.33;0.00;0.00;0.62;;;;;15.40;1.00;;;;;;2267094;61;1364;-82
2021/05/30 01:15:25;53998.00;0.18;94.10;0.00;0.00;0.62;;;;;15.60;1.00;;;;;;2268203;61;1667;-82
2021/05/30 01:17:53;33709.00;0.11;59.00;0.00;0.00;0.62;;;;;16.10;1.00;;;;;;2268141;61;1119;-82
2021/05/30 01:20:21;10402.00;0.03;18.65;0.00;0.00;0.62;;;;;15.90;1.00;;;;;;2267885;61;1937;-82
2021/05/30 01:22:49;76687.00;0.26;133.31;0.00;0.00;0.62;;;;;15.80;1.00;;;;;;2267887;61;1353;-82
2021/05/30 01:25:19;0.00;0.00;0.62;0.00;0.00;0.62;;;;;16.10;1.00;;;;;;2268151;61;1149;-82
2021/05/30 01:27:46;0.00;0.00;0.62;0.00;0.00;0.62;;;;;15.70;1.00;;;;;;2268239;61;1252;-82
2021/05/30 01:30:14;4648.00;0.02;8.68;0.00;0.00;0.62;;;;;15.50;1.00;;;;;;2268165;61;1113;-82
2021/05/30 01:32:41;16821.00;0.06;29.76;0.00;0.00;0.62;;;;;15.30;1.00;;;;;;2267781;61;1258;-82
2021/05/30 01:35:09;2803.00;0.01;5.48;0.00;0.00;0.62;;;;;15.60;1.00;;;;;;2268708;61;1226;-82
2021/05/30 01:37:35;0.00;0.00;0.62;0.00;0.00;0.62;;;;;15.60;1.00;;;;;;2268907;61;1102;-82
2021/05/30 01:40:02;0.00;0.00;0.62;0.00;0.00;0.62;;;;;15.60;1.00;;;;;;2268869;61;1941;-81
2021/05/30 01:42:30;0.00;0.00;0.62;0.00;0.00;0.62;;;;;15.60;1.00;;;;;;2267532;61;1320;-81
2021/05/30 01:44:56;3500.00;0.01;6.69;0.00;0.00;0.62;;;;;15.60;1.00;;;;;;2268406;61;1236;-82
2021/05/30 01:47:23;0.00;0.00;0.62;0.00;0.00;0.62;;;;;15.20;1.00;;;;;;2269308;61;1112;-81
2021/05/30 01:49:49;34548.00;0.12;60.45;0.00;0.00;0.62;;;;;14.90;1.00;;;;;;2268400;61;1176;-83
2021/05/30 01:52:15;0.00;0.00;0.62;0.00;0.00;0.62;;;;;14.80;1.00;;;;;;2268640;61;1364;-81
2021/05/30 01:54:44;42945.00;0.14;74.98;0.00;0.00;0.62;;;;;14.90;1.00;;;;;;2274628;61;1756;-81
2021/05/30 01:57:10;11701.00;0.04;20.90;0.00;0.00;0.62;;;;;15.10;1.00;;;;;;2276855;61;1109;-81
2021/05/30 01:59:38;87367.00;0.29;151.76;21031.00;0.07;37.06;;;;;15.10;1.00;;;;;;2268185;61;1181;-81
2021/05/30 02:02:06;0.00;0.00;0.62;0.00;0.00;0.62;;;;;15.00;1.00;;;;;;2266391;61;2036;-82
2021/05/30 02:04:38;17054.00;0.06;30.17;0.00;0.00;0.62;;;;;15.40;1.00;;;;;;2266836;61;1166;-82
2021/05/30 02:07:05;0.00;0.00;0.62;0.00;0.00;0.62;;;;;15.20;1.00;;;;;;2267042;61;1117;-82
2021/05/30 02:09:32;0.00;0.00;0.62;0.00;0.00;0.62;;;;;15.00;1.00;;;;;;2267050;61;1709;-82
2021/05/30 02:11:59;0.00;0.00;0.62;0.00;0.00;0.62;;;;;14.60;1.00;;;;;;2267166;61;1399;-83
2021/05/30 02:14:25;59395.00;0.20;103.43;0.00;0.00;0.62;;;;;14.70;1.00;;;;;;2267169;61;1156;-82
2021/05/30 02:16:53;81964.00;0.27;142.43;11366.00;0.04;20.32;;;;;14.80;1.00;;;;;;2266814;61;1151;-82
2021/05/30 02:19:20;88379.00;0.29;153.51;22054.00;0.07;38.83;;;;;14.50;1.00;;;;;;2266849;61;1195;-82
2021/05/30 02:21:47;0.00;0.00;0.62;0.00;0.00;0.62;;;;;14.50;1.00;;;;;;2266675;61;2021;-82
2021/05/30 02:24:16;22215.00;0.07;39.11;0.00;0.00;0.62;;;;;14.10;1.00;;;;;;2266616;61;1364;-82
2021/05/30 02:26:43;0.00;0.00;0.62;0.00;0.00;0.62;;;;;13.60;1.00;;;;;;2266709;61;1164;-82
2021/05/30 02:29:10;6272.00;0.02;11.49;0.00;0.00;0.62;;;;;13.90;1.00;;;;;;2266834;61;1592;-82
2021/05/30 02:31:37;0.00;0.00;0.62;0.00;0.00;0.62;;;;;14.60;1.00;;;;;;2266692;61;1101;-82
2021/05/30 02:34:04;35430.00;0.12;61.98;0.00;0.00;0.62;;;;;14.90;1.00;;;;;;2267073;61;1393;-82
2021/05/30 02:36:31;0.00;0.00;0.62;0.00;0.00;0.62;;;;;15.00;1.00;;;;;;2266962;61;939;-82
2021/05/30 02:38:57;0.00;0.00;0.62;0.00;0.00;0.62;;;;;14.80;1.00;;;;;;2266989;61;1149;-82
2021/05/30 02:41:24;0.00;0.00;0.62;0.00;0.00;0.62;;;;;14.60;1.00;;;;;;2266805;61;1947;-82
2021/05/30 02:43:50;0.00;0.00;0.62;0.00;0.00;0.62;;;;;14.40;1.00;;;;;;2266906;61;1346;-82
2021/05/30 02:46:17;32769.00;0.11;57.38;0.00;0.00;0.62;;;;;14.50;1.00;;;;;;2267185;61;1182;-82
2021/05/30 02:48:44;0.00;0.00;0.62;0.00;0.00;0.62;;;;;15.00;1.00;;;;;;2267052;61;1247;-82
2021/05/30 02:51:11;0.00;0.00;0.62;0.00;0.00;0.62;;;;;14.30;1.00;;;;;;2267361;61;1296;-82
2021/05/30 02:53:37;0.00;0.00;0.62;0.00;0.00;0.62;;;;;14.40;1.00;;;;;;2266705;61;1270;-82
2021/05/30 02:56:04;0.00;0.00;0.62;0.00;0.00;0.62;;;;;14.30;1.00;;;;;;2267286;61;1133;-81
2021/05/30 02:58:31;9003.00;0.03;16.22;0.00;0.00;0.62;;;;;14.70;1.00;;;;;;2267211;61;1778;-82
2021/05/30 03:00:58;0.00;0.00;0.62;0.00;0.00;0.62;;;;;14.80;1.00;;;;;;2266997;61;2045;-81
2021/05/30 03:03:25;123421.00;0.41;213.98;25503.00;0.09;44.80;;;;;14.90;1.00;;;;;;2267089;61;1324;-81
2021/05/30 03:05:51;4796.00;0.02;8.93;0.00;0.00;0.62;;;;;15.00;1.00;;;;;;2266930;61;1281;-81
2021/05/30 03:08:18;77935.00;0.26;135.47;0.00;0.00;0.62;;;;;15.40;1.00;;;;;;2266595;61;1204;-81
2021/05/30 03:10:45;0.00;0.00;0.62;0.00;0.00;0.62;;;;;15.50;1.00;;;;;;2267150;61;1163;-82
2021/05/30 03:13:11;53180.00;0.18;92.69;0.00;0.00;0.62;;;;;15.10;1.00;;;;;;2266945;61;1309;-82
2021/05/30 03:15:39;23840.00;0.08;41.92;0.00;0.00;0.62;;;;;15.30;1.00;;;;;;2267089;61;1143;-82
2021/05/30 03:18:06;0.00;0.00;0.62;0.00;0.00;0.62;;;;;15.10;1.00;;;;;;2267451;61;1754;-82
2021/05/30 03:20:32;0.00;0.00;0.62;0.00;0.00;0.62;;;;;14.20;1.00;;;;;;2267282;61;2016;-82
2021/05/30 03:22:59;0.00;0.00;0.62;0.00;0.00;0.62;;;;;13.80;1.00;;;;;;2266805;61;1378;-82
2021/05/30 03:25:26;7979.00;0.03;14.45;0.00;0.00;0.62;;;;;13.60;1.00;;;;;;2266475;61;1229;-82
2021/05/30 03:27:53;99592.00;0.33;172.87;0.00;0.00;0.62;;;;;13.80;1.00;;;;;;2266778;61;1237;-83
2021/05/30 03:30:20;46796.00;0.16;81.64;0.00;0.00;0.62;;;;;14.20;1.00;;;;;;2266517;61;1150;-82
2021/05/30 03:32:46;321175.00;1.07;554.32;49266.00;0.16;85.92;;;;;14.20;1.00;;;;;;2266711;61;1327;-82
2021/05/30 03:35:13;122185.00;0.41;211.85;0.00;0.00;0.62;;;;;14.40;1.00;;;;;;2266519;61;1508;-82
2021/05/30 03:37:39;35357.00;0.12;61.85;0.00;0.00;0.62;;;;;14.40;1.00;;;;;;2266622;61;1230;-83
2021/05/30 03:40:13;23642.00;0.08;41.58;0.00;0.00;0.62;;;;;14.70;1.00;;;;;;2266834;61;1142;-83
2021/05/30 03:42:46;0.00;0.00;0.62;0.00;0.00;0.62;;;;;14.70;1.00;;;;;;2266720;61;1391;-82
2021/05/30 03:45:13;0.00;0.00;0.62;0.00;0.00;0.62;;;;;15.00;1.00;;;;;;2266316;61;1159;-83
2021/05/30 03:47:40;45991.00;0.15;80.25;0.00;0.00;0.62;;;;;14.70;1.00;;;;;;2266296;61;1132;-83
2021/05/30 03:50:08;151563.00;0.51;262.50;0.00;0.00;0.62;;;;;14.60;1.00;;;;;;2266767;61;1136;-82
2021/05/30 03:52:34;0.00;0.00;0.62;0.00;0.00;0.62;;;;;14.50;1.00;;;;;;2266453;61;1670;-82
2021/05/30 03:55:00;87666.00;0.29;152.28;0.00;0.00;0.62;;;;;13.70;1.00;;;;;;2267230;61;1117;-82
2021/05/30 03:57:27;33286.00;0.11;58.27;0.00;0.00;0.62;;;;;13.90;1.00;;;;;;2266777;61;1168;-82
2021/05/30 03:59:54;97798.00;0.33;169.77;0.00;0.00;0.62;;;;;13.90;1.00;;;;;;2266928;61;1140;-82
2021/05/30 04:02:20;198946.00;0.66;344.11;12771.00;0.04;22.75;;;;;14.20;1.00;;;;;;2266767;61;2040;-83
2021/05/30 04:04:47;162617.00;0.54;281.55;0.00;0.00;0.62;;;;;14.10;1.00;;;;;;2270529;61;1163;-82
2021/05/30 04:07:13;113107.00;0.38;196.19;0.00;0.00;0.62;;;;;14.30;1.00;;;;;;2271172;61;1111;-82
2021/05/30 04:09:39;154377.00;0.51;267.35;0.00;0.00;0.62;;;;;14.50;1.00;;;;;;2270089;61;1223;-82
2021/05/30 04:12:07;100771.00;0.34;174.90;0.00;0.00;0.62;;;;;13.70;1.00;;;;;;2267167;61;1785;-80
2021/05/30 04:14:33;0.00;0.00;0.62;0.00;0.00;0.62;;;;;13.80;1.00;;;;;;2267029;61;1112;-82
2021/05/30 04:17:01;184294.00;0.61;318.88;0.00;0.00;0.62;;;;;13.80;1.00;;;;;;2267267;61;2014;-83
2021/05/30 04:19:27;20808.00;0.07;36.67;0.00;0.00;0.62;;;;;14.20;1.00;;;;;;2266901;61;1123;-82
2021/05/30 04:21:53;143844.00;0.48;249.20;0.00;0.00;0.62;;;;;14.40;1.00;;;;;;2266658;61;1943;-83
2021/05/30 04:24:20;119636.00;0.40;207.45;0.00;0.00;0.62;;;;;14.30;1.00;;;;;;2266726;61;1562;-82
2021/05/30 04:26:46;110880.00;0.37;192.35;0.00;0.00;0.62;;;;;14.20;1.00;;;;;;2266566;61;1300;-82
2021/05/30 04:29:13;123973.00;0.41;214.94;0.00;0.00;0.62;;;;;14.30;1.00;;;;;;2266534;61;1061;-81
2021/05/30 04:31:39;135200.00;0.45;234.30;0.00;0.00;0.62;;;;;13.70;1.00;;;;;;2266245;61;1240;-82
2021/05/30 04:34:06;198588.00;0.66;343.49;0.00;0.00;0.62;;;;;13.90;1.00;;;;;;2266584;61;1395;-83
2021/05/30 04:36:33;30745.00;0.10;53.87;0.00;0.00;0.62;;;;;13.90;1.00;;;;;;2267014;61;1096;-82
2021/05/30 04:38:59;220226.00;0.73;380.73;30048.00;0.10;52.67;;;;;13.90;1.00;;;;;;2266823;61;1130;-82
2021/05/30 04:41:26;42919.00;0.14;74.94;0.00;0.00;0.62;;;;;13.40;1.00;;;;;;2266370;61;1946;-80
2021/05/30 04:43:52;203861.00;0.68;352.57;0.00;0.00;0.62;;;;;13.20;1.00;;;;;;2273721;61;1345;-82
2021/05/30 04:46:18;168319.00;0.56;291.37;0.00;0.00;0.62;;;;;13.10;1.00;;;;;;2275270;61;1191;-82
2021/05/30 04:48:45;133309.00;0.44;231.04;0.00;0.00;0.62;;;;;13.10;1.00;;;;;;2267346;61;1174;-82
2021/05/30 04:51:13;144232.00;0.48;249.87;0.00;0.00;0.62;;;;;13.40;1.00;;;;;;2265816;61;1334;-82
2021/05/30 04:53:41;77827.00;0.26;135.28;0.00;0.00;0.62;;;;;14.20;1.00;;;;;;2266175;61;1357;-82
2021/05/30 04:56:08;82209.00;0.27;142.85;0.00;0.00;0.62;;;;;14.90;1.00;;;;;;2266435;61;1087;-83
2021/05/30 04:58:35;139900.00;0.47;242.40;24413.00;0.08;42.91;;;;;15.20;1.00;;;;;;2266125;61;1171;-82
2021/05/30 05:01:02;197437.00;0.66;341.51;0.00;0.00;0.62;;;;;15.10;1.00;;;;;;2266712;61;2013;-83
2021/05/30 05:03:30;162222.00;0.54;280.87;0.00;0.00;0.62;;;;;14.80;1.00;;;;;;2266484;61;1261;-82
2021/05/30 05:05:56;212836.00;0.71;368.02;0.00;0.00;0.62;;;;;14.80;1.00;;;;;;2266351;61;1144;-82
2021/05/30 05:08:24;111761.00;0.37;193.87;0.00;0.00;0.62;;;;;14.40;1.00;;;;;;2266850;61;1068;-81
2021/05/30 05:10:50;188114.00;0.63;325.46;518.00;0.00;1.52;;;;;14.20;1.00;;;;;;2266616;61;1138;-83
2021/05/30 05:13:17;184720.00;0.62;319.62;0.00;0.00;0.62;;;;;14.00;1.00;;;;;;2266593;61;1260;-84
2021/05/30 05:15:45;202433.00;0.67;350.11;0.00;0.00;0.62;;;;;14.40;1.00;;;;;;2266462;61;1237;-83
2021/05/30 05:18:13;142878.00;0.48;247.53;0.00;0.00;0.62;;;;;14.50;1.00;;;;;;2266901;61;1159;-80
2021/05/30 05:20:40;8679.00;0.03;15.66;0.00;0.00;0.62;;;;;14.20;1.00;;;;;;2267139;61;1937;-80
2021/05/30 05:23:06;174517.00;0.58;302.05;0.00;0.00;0.62;;;;;14.30;1.00;;;;;;2267366;61;1608;-81
2021/05/30 05:25:35;126367.00;0.42;219.06;0.00;0.00;0.62;;;;;13.80;1.00;;;;;;2267300;61;1232;-82
2021/05/30 05:28:02;74939.00;0.25;130.29;0.00;0.00;0.62;;;;;13.60;1.00;;;;;;2266920;61;1100;-82
2021/05/30 05:30:29;158423.00;0.53;274.32;0.00;0.00;0.62;;;;;13.70;1.00;;;;;;2267712;61;1156;-82
2021/05/30 05:32:56;65944.00;0.22;114.75;0.00;0.00;0.62;;;;;13.80;1.00;;;;;;2268053;61;1294;-82
2021/05/30 05:35:23;99687.00;0.33;173.03;0.00;0.00;0.62;;;;;13.80;1.00;;;;;;2267947;61;1277;-80
2021/05/30 05:37:53;229908.00;0.77;397.39;0.00;0.00;0.62;;;;;13.90;1.00;;;;;;2267646;61;1903;-83
2021/05/30 05:40:20;37430.00;0.12;65.44;0.00;0.00;0.62;;;;;14.90;1.00;;;;;;2267912;61;2008;-82
2021/05/30 05:42:48;34100.00;0.11;59.68;0.00;0.00;0.62;;;;;16.90;1.00;;;;;;2274932;61;1339;-82
2021/05/30 05:45:15;85077.00;0.28;147.81;0.00;0.00;0.62;;;;;19.10;1.00;;;;;;2275818;61;1215;-82
2021/05/30 05:47:43;273548.00;0.91;472.44;71654.00;0.24;124.62;;;;;21.10;1.00;;;;;;2275359;61;1141;-82
2021/05/30 05:50:10;124901.00;0.42;216.54;0.00;0.00;0.62;;;;;22.70;1.00;;;;;;2268678;61;1141;-82
2021/05/30 05:52:37;24435.00;0.08;42.95;0.00;0.00;0.62;;;;;23.90;1.00;;;;;;2272980;61;1372;-86
2021/05/30 05:55:04;129650.00;0.43;224.73;0.00;0.00;0.62;;;;;24.50;1.00;;;;;;2275900;61;1121;-84
2021/05/30 05:57:31;40134.00;0.13;70.12;0.00;0.00;0.62;;;;;24.70;1.00;;;;;;2276000;61;1141;-82
2021/05/30 05:59:58;16754.00;0.06;29.65;0.00;0.00;0.62;;;;;25.10;1.00;;;;;;2275717;61;1781;-84
2021/05/30 06:02:24;70509.00;0.24;122.64;0.00;0.00;0.62;;;;;25.50;1.00;;;;;;2268810;61;1947;-84
2021/05/30 06:04:50;173899.00;0.58;300.98;0.00;0.00;0.62;;;;;24.50;1.00;;;;;;2267619;61;1099;-82
2021/05/30 06:07:17;122425.00;0.41;212.27;0.00;0.00;0.62;;;;;24.90;1.00;;;;;;2268084;61;1118;-84
2021/05/30 06:09:43;193371.00;0.64;334.51;0.00;0.00;0.62;;;;;25.30;1.00;;;;;;2268081;61;1224;-83
2021/05/30 06:12:10;279580.00;0.93;482.82;0.00;0.00;0.62;;;;;25.50;1.00;;;;;;2268255;61;1849;-83
2021/05/30 06:14:37;183639.00;0.61;317.76;0.00;0.00;0.62;;;;;26.60;1.00;;;;;;2268563;61;1114;-82
2021/05/30 06:17:05;228688.00;0.76;395.29;0.00;0.00;0.62;;;;;27.90;1.00;;;;;;2268949;61;1264;-83
2021/05/30 06:19:31;89431.00;0.30;155.33;0.00;0.00;0.62;;;;;28.40;1.00;;;;;;2269114;61;1176;-83
2021/05/30 06:21:58;160554.00;0.54;277.99;0.00;0.00;0.62;;;;;27.60;1.00;;;;;;2268555;61;2006;-83
2021/05/30 06:24:24;167568.00;0.56;290.08;0.00;0.00;0.62;;;;;27.90;1.00;;;;;;2268260;61;1153;-82
2021/05/30 06:26:54;67327.00;0.22;117.14;0.00;0.00;0.62;;;;;27.60;1.00;;;;;;2268528;61;1119;-82
2021/05/30 06:29:21;58099.00;0.19;101.19;0.00;0.00;0.62;;;;;27.80;1.00;;;;;;2268567;61;1258;-82
2021/05/30 06:31:48;137137.00;0.46;237.64;1033.00;0.00;2.41;;;;;28.70;1.00;;;;;;2268817;61;1101;-82
2021/05/30 06:34:15;194684.00;0.65;336.77;43442.00;0.14;75.84;;;;;29.00;1.00;;;;;;2268628;61;1347;-83
2021/05/30 06:36:42;0.00;0.00;0.62;0.00;0.00;0.62;;;;;29.70;1.00;;;;;;2268801;61;1117;-83
2021/05/30 06:39:09;106344.00;0.35;184.52;0.00;0.00;0.62;;;;;29.50;1.00;;;;;;2268943;61;1145;-82
2021/05/30 06:41:36;194502.00;0.65;336.46;0.00;0.00;0.62;;;;;29.10;1.00;;;;;;2268060;61;2000;-82
2021/05/30 06:44:02;159877.00;0.53;276.83;0.00;0.00;0.62;;;;;28.60;1.00;;;;;;2268363;61;1273;-82
2021/05/30 06:46:29;106223.00;0.35;184.31;0.00;0.00;0.62;;;;;27.90;1.00;;;;;;2268631;61;1141;-81
2021/05/30 06:48:55;79942.00;0.27;138.94;0.00;0.00;0.62;;;;;28.00;1.00;;;;;;2269021;61;1142;-83
2021/05/30 06:51:23;125573.00;0.42;217.69;0.00;0.00;0.62;;;;;28.20;1.00;;;;;;2268459;61;1122;-83
2021/05/30 06:53:51;17044.00;0.06;30.15;0.00;0.00;0.62;;;;;28.00;1.00;;;;;;2268418;61;1363;-82
2021/05/30 06:56:18;346251.00;1.15;597.42;112675.00;0.38;195.45;;;;;27.70;1.00;;;;;;2267913;61;1294;-81
2021/05/30 06:58:45;115151.00;0.38;199.72;0.00;0.00;0.62;;;;;27.00;1.00;;;;;;2268986;61;1108;-83
2021/05/30 07:01:12;123973.00;0.41;214.94;0.00;0.00;0.62;;;;;27.30;1.00;;;;;;2269034;61;1931;-83
2021/05/30 07:03:39;110323.00;0.37;191.39;0.00;0.00;0.62;;;;;27.10;1.00;;;;;;2268480;61;1376;-84
2021/05/30 07:06:06;88000.00;0.29;152.85;0.00;0.00;0.62;;;;;26.30;1.00;;;;;;2268245;61;1251;-83
2021/05/30 07:08:33;182942.00;0.61;316.56;0.00;0.00;0.62;;;;;26.60;1.00;;;;;;2269816;61;1215;-82
2021/05/30 07:10:59;913.00;0.00;2.20;0.00;0.00;0.62;;;;;27.00;1.00;;;;;;2269213;61;1146;-81
2021/05/30 07:13:26;85857.00;0.29;149.15;0.00;0.00;0.62;;;;;27.40;1.00;;;;;;2267749;61;1362;-82
2021/05/30 07:15:53;0.00;0.00;0.62;0.00;0.00;0.62;;;;;26.30;1.00;;;;;;2267699;61;1188;-83
2021/05/30 07:18:20;197817.00;0.66;342.17;0.00;0.00;0.62;;;;;25.90;1.00;;;;;;2268332;61;1241;-83
2021/05/30 07:20:48;76477.00;0.25;132.95;0.00;0.00;0.62;;;;;26.00;1.00;;;;;;2268209;61;1937;-83
2021/05/30 07:23:15;103207.00;0.34;179.11;0.00;0.00;0.62;;;;;26.00;1.00;;;;;;2268495;61;1340;-83
2021/05/30 07:25:43;63227.00;0.21;110.05;0.00;0.00;0.62;;;;;25.50;1.00;;;;;;2268455;61;1220;-83
2021/05/30 07:28:10;174890.00;0.58;302.69;36949.00;0.12;64.61;;;;;26.10;1.00;;;;;;2270026;61;1189;-82
2021/05/30 07:30:36;129950.00;0.43;225.24;0.00;0.00;0.62;;;;;25.80;1.00;;;;;;2271088;61;1176;-81
2021/05/30 07:33:03;224873.00;0.75;388.73;0.00;0.00;0.62;;;;;26.40;1.00;;;;;;2276051;61;1354;-81
2021/05/30 07:35:31;166118.00;0.55;287.58;0.00;0.00;0.62;;;;;27.70;1.00;;;;;;2276496;61;1157;-82
2021/05/30 07:37:58;18990.00;0.06;33.52;0.00;0.00;0.62;;;;;28.40;1.00;;;;;;2269073;61;1059;-84
2021/05/30 07:40:25;104585.00;0.35;181.49;0.00;0.00;0.62;;;;;28.60;1.00;;;;;;2270715;61;1107;-82
2021/05/30 07:42:52;9741.00;0.03;17.50;0.00;0.00;0.62;;;;;29.10;1.00;;;;;;2270798;61;2030;-83
2021/05/30 07:45:19;111977.00;0.37;194.24;0.00;0.00;0.62;;;;;28.80;1.00;;;;;;2269735;61;1168;-83
2021/05/30 07:47:47;39829.00;0.13;69.59;0.00;0.00;0.62;;;;;29.60;1.00;;;;;;2268792;61;1139;-81
2021/05/30 07:50:15;3469.00;0.01;6.63;0.00;0.00;0.62;;;;;28.50;1.00;;;;;;2269107;61;1177;-82
2021/05/30 07:52:42;326484.00;1.09;563.44;0.00;0.00;0.62;;;;;27.30;1.00;;;;;;2269139;61;1364;-82
2021/05/30 07:55:10;150473.00;0.50;260.62;0.00;0.00;0.62;;;;;28.20;1.00;;;;;;2268179;61;1112;-81
2021/05/30 07:57:37;51496.00;0.17;89.77;0.00;0.00;0.62;;;;;27.90;1.00;;;;;;2267673;61;1148;-82
2021/05/30 08:00:08;107025.00;0.36;185.70;0.00;0.00;0.62;;;;;27.10;1.00;;;;;;2267192;61;1398;-82
2021/05/30 08:02:35;0.00;0.00;0.62;0.00;0.00;0.62;;;;;26.10;1.00;;;;;;2267885;61;1947;-82
2021/05/30 08:05:01;89499.00;0.30;155.44;0.00;0.00;0.62;;;;;25.10;1.00;;;;;;2268381;61;1759;-81
2021/05/30 08:07:27;37886.00;0.13;66.23;0.00;0.00;0.62;;;;;25.80;1.00;;;;;;2268327;61;1240;-81
2021/05/30 08:09:54;158941.00;0.53;275.21;0.00;0.00;0.62;;;;;26.40;1.00;;;;;;2268315;61;1144;-83
2021/05/30 08:12:21;80879.00;0.27;140.56;0.00;0.00;0.62;;;;;25.40;1.00;;;;;;2269317;61;1369;-81
2021/05/30 08:14:47;171612.00;0.57;297.04;0.00;0.00;0.62;;;;;25.10;1.00;;;;;;2269925;61;1280;-83
2021/05/30 08:17:14;66128.00;0.22;115.07;0.00;0.00;0.62;;;;;25.50;1.00;;;;;;2270208;61;1081;-82
2021/05/30 08:19:41;57403.00;0.19;99.99;0.00;0.00;0.62;;;;;26.10;1.00;;;;;;2268010;61;1140;-80
2021/05/30 08:22:08;96866.00;0.32;168.16;0.00;0.00;0.62;;;;;27.00;1.00;;;;;;2268061;61;2024;-81
2021/05/30 08:24:36;100117.00;0.33;173.77;0.00;0.00;0.62;;;;;27.20;1.00;;;;;;2267133;61;1151;-80
2021/05/30 08:27:03;335826.00;1.12;579.50;100953.00;0.34;175.22;;;;;27.10;1.00;;;;;;2267823;61;1172;-81
2021/05/30 08:29:30;47249.00;0.16;82.43;0.00;0.00;0.62;;;;;27.20;1.00;;;;;;2267736;61;1257;-80
2021/05/30 08:31:56;186476.00;0.62;322.64;0.00;0.00;0.62;;;;;27.20;1.00;;;;;;2267591;61;1220;-82
2021/05/30 08:34:24;84091.00;0.28;146.10;0.00;0.00;0.62;;;;;28.00;1.00;;;;;;2267786;61;1142;-80
2021/05/30 08:36:52;7380.00;0.02;13.41;0.00;0.00;0.62;;;;;27.60;1.00;;;;;;2267296;61;1212;-81
2021/05/30 08:39:18;98934.00;0.33;171.73;0.00;0.00;0.62;;;;;26.90;1.00;;;;;;2268167;61;1166;-81
2021/05/30 08:41:45;98846.00;0.33;171.58;0.00;0.00;0.62;;;;;25.30;1.00;;;;;;2267697;61;1923;-81
2021/05/30 08:44:12;144735.00;0.48;250.73;0.00;0.00;0.62;;;;;24.50;1.00;;;;;;2267477;61;1343;-81
2021/05/30 08:46:39;144580.00;0.48;250.47;0.00;0.00;0.62;;;;;22.50;1.00;;;;;;2267258;61;1097;-81
2021/05/30 08:49:06;122243.00;0.41;211.95;0.00;0.00;0.62;;;;;22.10;1.00;;;;;;2267859;61;1127;-81
2021/05/30 08:51:36;80477.00;0.27;139.86;0.00;0.00;0.62;;;;;21.40;1.00;;;;;;2267791;61;1114;-81
2021/05/30 08:54:08;337344.00;1.12;582.11;123107.00;0.41;213.44;;;;;21.10;1.00;;;;;;2267416;61;1709;-81
2021/05/30 08:56:36;78110.00;0.26;135.77;0.00;0.00;0.62;;;;;21.20;1.00;;;;;;2267874;61;1314;-82
2021/05/30 08:59:20;0.00;0.00;0.62;0.00;0.00;0.62;;;;;21.90;1.00;;;;;;2267877;61;1151;-82
2021/05/30 09:01:48;101135.00;0.34;175.53;0.00;0.00;0.62;;;;;22.30;1.00;;;;;;2268028;61;2018;-82
2021/05/30 09:04:15;50067.00;0.17;87.30;0.00;0.00;0.62;;;;;22.80;1.00;;;;;;2267639;61;1397;-81
2021/05/30 09:06:45;92431.00;0.31;160.51;0.00;0.00;0.62;;;;;22.00;1.00;;;;;;2267696;61;1175;-82
2021/05/30 09:09:14;0.00;0.00;0.62;0.00;0.00;0.62;;;;;22.50;1.00;;;;;;2268075;61;1172;-82
2021/05/30 09:11:45;1328.00;0.00;2.92;0.00;0.00;0.62;;;;;23.40;1.00;;;;;;2267695;61;1388;-83
2021/05/30 09:14:15;371759.00;1.24;641.26;58349.00;0.19;101.62;;;;;23.70;1.00;;;;;;2267754;61;1411;-82
2021/05/30 09:16:58;43673.00;0.15;76.24;0.00;0.00;0.62;;;;;22.20;1.00;;;;;;2268599;61;1168;-82
2021/05/30 09:19:43;0.00;0.00;0.62;0.00;0.00;0.62;;;;;21.40;1.00;;;;;;2268338;61;1229;-82
2021/05/30 09:22:36;0.00;0.00;0.62;0.00;0.00;0.62;;;;;21.30;1.00;;;;;;2269128;61;1935;-82
2021/05/30 09:25:21;0.00;0.00;0.62;0.00;0.00;0.62;;;;;20.90;1.00;;;;;;2268710;61;1153;-82
2021/05/30 09:27:59;9891.00;0.03;17.76;0.00;0.00;0.62;;;;;20.60;1.00;;;;;;2269277;61;1225;-82
2021/05/30 09:30:39;29973.00;0.10;52.54;0.00;0.00;0.62;;;;;20.90;1.00;;;;;;2272992;61;1203;-81
2021/05/30 09:33:13;38384.00;0.13;67.09;0.00;0.00;0.62;;;;;21.20;1.00;;;;;;2273224;61;1426;-82
2021/05/30 09:35:58;354597.00;1.18;611.76;138505.00;0.46;239.99;;;;;20.90;1.00;;;;;;2273324;61;1163;-81
2021/05/30 09:38:36;0.00;0.00;0.62;0.00;0.00;0.62;;;;;21.30;1.00;;;;;;2274483;61;1210;-81
2021/05/30 09:41:06;0.00;0.00;0.62;0.00;0.00;0.62;;;;;21.20;1.00;;;;;;2274376;61;1930;-81
2021/05/30 09:43:36;59591.00;0.20;103.77;0.00;0.00;0.62;;;;;20.50;1.00;;;;;;2274517;61;1607;-81
2021/05/30 09:46:09;0.00;0.00;0.62;0.00;0.00;0.62;;;;;20.30;1.00;;;;;;2274162;61;1156;-82
2021/05/30 09:48:39;14469.00;0.05;25.69;0.00;0.00;0.62;;;;;20.70;1.00;;;;;;2273881;61;1125;-80
2021/05/30 09:51:27;0.00;0.00;0.62;0.00;0.00;0.62;;;;;21.50;1.00;;;;;;2274510;61;1271;-82
2021/05/30 09:53:58;24042.00;0.08;42.27;0.00;0.00;0.62;;;;;22.20;1.00;;;;;;2273911;61;1501;-81
2021/05/30 09:56:26;19121.00;0.06;33.75;0.00;0.00;0.62;;;;;21.90;1.00;;;;;;2273553;61;1098;-81
2021/05/30 09:58:54;0.00;0.00;0.62;0.00;0.00;0.62;;;;;21.50;1.00;;;;;;2274463;61;1127;-81
2021/05/30 10:01:20;0.00;0.00;0.62;0.00;0.00;0.62;;;;;21.40;1.00;;;;;;2274217;61;2008;-82
2021/05/30 10:03:47;0.00;0.00;0.62;0.00;0.00;0.62;;;;;21.30;1.00;;;;;;2273720;61;1263;-81
2021/05/30 10:06:14;76051.00;0.25;132.22;0.00;0.00;0.62;;;;;21.00;1.00;;;;;;2271124;61;1544;-81
2021/05/30 10:08:41;17761.00;0.06;31.39;0.00;0.00;0.62;;;;;20.20;1.00;;;;;;2271134;61;1189;-81
2021/05/30 10:11:08;0.00;0.00;0.62;0.00;0.00;0.62;;;;;19.70;1.00;;;;;;2271331;61;1113;-82
2021/05/30 10:13:34;0.00;0.00;0.62;0.00;0.00;0.62;;;;;19.60;1.00;;;;;;2271349;61;1364;-83
2021/05/30 10:16:01;77129.00;0.26;134.08;0.00;0.00;0.62;;;;;20.10;1.00;;;;;;2271169;61;1160;-84